This is the latest recevied weather packets stored in our database for station/object AD7ZD. If no packets are shown the sender has not sent any weather packets the latest 1 day(s).
| Time | Temp. | Humidity | Pressure | Rain* | Wind** | Luminosity | Snow |
|---|---|---|---|---|---|---|---|
| 1836274571 | 20.56° C | 51% | 1014.5 hPa | 0 mm | 1.34 m/s, 135° | 0 W/m² | - |
| 1836274425 | 20° C | 58% | 1014.4 hPa | 0 mm | 2.68 m/s, 182° | 0 W/m² | - |
| 1836274270 | 20° C | 58% | 1014.4 hPa | 0 mm | 4.92 m/s, 178° | 0 W/m² | - |
| 1836274123 | 20° C | 56% | 1014.3 hPa | 0 mm | 2.24 m/s, 125° | 0 W/m² | - |
| 1836273969 | 20° C | 59% | 1014.3 hPa | 0 mm | 4.47 m/s, 148° | 0 W/m² | - |
| 1778057456 | 10.56° C | 76% | 1013.5 hPa | 0 mm | 1.34 m/s, 178° | 0 W/m² | - |
| 1778057153 | 10.56° C | 75% | 1013.4 hPa | 0 mm | 5.36 m/s, 153° | 0 W/m² | - |
| 1778056849 | 11.11° C | 75% | 1013.4 hPa | 0 mm | 1.34 m/s, 159° | 0 W/m² | - |
| 1778056547 | 11.11° C | 74% | 1013.5 hPa | 0 mm | 4.02 m/s, 158° | 0 W/m² | - |
| 1778056244 | 11.67° C | 73% | 1013.4 hPa | 0 mm | 3.13 m/s, 143° | 0 W/m² | - |
| 1778055941 | 11.67° C | 72% | 1013.5 hPa | 0 mm | 3.58 m/s, 158° | 0 W/m² | - |
| 1778055636 | 11.11° C | 74% | 1013.5 hPa | 0 mm | 4.92 m/s, 135° | 0 W/m² | - |
| 1778055335 | 11.11° C | 74% | 1013.5 hPa | 0 mm | 5.36 m/s, 134° | 0 W/m² | - |
| 1778055032 | 11.11° C | 74% | 1013.4 hPa | 0 mm | 5.81 m/s, 131° | 0 W/m² | - |
| 1778054730 | 10.56° C | 75% | 1013.5 hPa | 0 mm | 4.02 m/s, 127° | 0 W/m² | - |
| 1778054426 | 11.11° C | 72% | 1013.1 hPa | 0 mm | 2.24 m/s, 90° | 0 W/m² | - |
| 1778054124 | 12.78° C | 65% | 1013.4 hPa | 0 mm | 1.34 m/s, 169° | 0 W/m² | - |
| 1778053821 | 12.78° C | 64% | 1013.3 hPa | 0 mm | 4.47 m/s, 209° | 0 W/m² | - |
| 1778053518 | 11.67° C | 70% | 1013.4 hPa | 0 mm | 1.34 m/s, 148° | 0 W/m² | - |
| 1778053215 | 11.67° C | 72% | 1013.4 hPa | 0 mm | 2.68 m/s, 154° | 0 W/m² | - |
| 1778052913 | 11.11° C | 76% | 1013.3 hPa | 0 mm | 4.47 m/s, 170° | 0 W/m² | - |
| 1778052610 | 11.11° C | 75% | 1013.4 hPa | 0 mm | 3.58 m/s, 164° | 0 W/m² | - |
| 1778052307 | 11.11° C | 76% | 1013.1 hPa | 0 mm | 3.13 m/s, 149° | 0 W/m² | - |
| 1778052005 | 11.67° C | 75% | 1013.3 hPa | 0 mm | 2.24 m/s, 165° | 0 W/m² | - |
| 1778051715 | 11.67° C | 76% | 1013 hPa | 0 mm | 2.24 m/s, 148° | 0 W/m² | - |
* Rain latest hour (hover to see other rain measurements)
** Current wind speed in m/s (hover to see current wind gust speed)